الصفحة الرئيسية
METAR-TAF:

METAR-TAF

مطار :

مطار عين البيضاء

ورقلة, الجزائر

دائرة عرض: 31-55N, خط طول: 005-24E, ارتفاع: 141 متر

مراقبة الطقس الحالي

تاريخ ووقت الإصدار 1ساعة و 6 دقيقة قبل الساعة 21:00UTC
ريح 6 عقدة من الشمال الشرقي
درجة الحرارة 28°درجة مئوية
الرطوبة 12%
ضغط 1018 hPa
الرؤية 10 كم أو أكثر
الغيوم لا تقل 1500 م ولا وجود لمزنة ركامية السحاب الأسود

METAR: DAUU 252100Z 04006KT CAVOK 28/M04 Q1018

زمن: 23:06 (22:06 UTC)

توقعات

تاريخ ووقت الإصدار 2ساعات و 6 دقيقة قبل الساعة 20:00UTC
التوقعات صالحة من25 الساعة 21 UTC إلى 26 الساعة 06 UTC
ريح 12 عقدة من الشرق/الشمال الشرقي
الرؤية 10 كم أو أكثر
غيوم قليلة على ارتفاع 4600 قدم
غيوم متفرقة على ارتفاع 23300 قدم
نظرية الاحتمالات 40% :
مؤقت
من 26 الساعة 02 UTC إلى 26 الساعة 06 UTC
ريح 22 عقدة من الشمال الشرقي
الرؤية: 3000 متر
غيوم قليلة على ارتفاع 4000 قدم, مزن ركامية عمودية.
هبوب عاصفة رملية منخفضة

TAF: DAUU 252000Z 2521/2606 06012KT 9999 FEW046 SCT233 PROB40 TEMPO 2602/2606 04022KT 3000 DRSA FEW040TCU

أرصاد الطقس والتوقعات من أكثر من 4000 مطار (تقارير الطقس للمطار METAR والتنبؤ بالطقس بالمطارTAF).

المحطات المتاحة هي النقط الصفراء والحمراء على الخريطة.

حرك المؤشر فوق النقطة لمعرفة اسم المحطة.

ثم انقر لمعرفة أرصاد وتوقعات الطقس.

لتغيير الخارطة: اضغط على الأزرار الخضراء مع رمز الصليب الأسود للتكبير. على الزر الأخضر مع شرطة للتصغير، أو على الأسهم الخضراء للخرائط المجاورة.


METAR-TAF: